sensor_id;sensor_type;location;lat;lon;timestamp;temperature;humidity
3940;DHT22;1984;48.312;9.244;2022-09-14T00:01:56;18.10;99.90
3940;DHT22;1984;48.312;9.244;2022-09-14T00:04:22;18.10;99.90
3940;DHT22;1984;48.312;9.244;2022-09-14T00:06:48;18.10;99.90
3940;DHT22;1984;48.312;9.244;2022-09-14T00:09:19;18.10;99.90
3940;DHT22;1984;48.312;9.244;2022-09-14T00:11:45;18.10;99.90
3940;DHT22;1984;48.312;9.244;2022-09-14T00:14:11;18.00;99.90
3940;DHT22;1984;48.312;9.244;2022-09-14T00:16:38;18.00;99.90
3940;DHT22;1984;48.312;9.244;2022-09-14T00:19:12;18.00;99.90
3940;DHT22;1984;48.312;9.244;2022-09-14T00:21:39;17.90;99.90
3940;DHT22;1984;48.312;9.244;2022-09-14T00:24:06;18.00;99.90
3940;DHT22;1984;48.312;9.244;2022-09-14T00:26:32;18.00;99.90
3940;DHT22;1984;48.312;9.244;2022-09-14T00:28:59;18.00;99.90
3940;DHT22;1984;48.312;9.244;2022-09-14T00:31:30;18.00;99.90
3940;DHT22;1984;48.312;9.244;2022-09-14T00:33:55;17.90;99.90
3940;DHT22;1984;48.312;9.244;2022-09-14T00:36:26;17.90;99.90
3940;DHT22;1984;48.312;9.244;2022-09-14T00:38:53;17.80;99.90
3940;DHT22;1984;48.312;9.244;2022-09-14T00:41:28;17.90;99.90
3940;DHT22;1984;48.312;9.244;2022-09-14T00:44:03;17.90;99.90
3940;DHT22;1984;48.312;9.244;2022-09-14T00:46:32;17.90;99.90
3940;DHT22;1984;48.312;9.244;2022-09-14T00:49:00;17.90;99.90
3940;DHT22;1984;48.312;9.244;2022-09-14T00:51:28;17.90;99.90
3940;DHT22;1984;48.312;9.244;2022-09-14T00:53:55;17.90;99.90
3940;DHT22;1984;48.312;9.244;2022-09-14T00:56:21;18.00;99.90
3940;DHT22;1984;48.312;9.244;2022-09-14T00:58:48;18.00;99.90
3940;DHT22;1984;48.312;9.244;2022-09-14T01:01:15;18.00;99.90
3940;DHT22;1984;48.312;9.244;2022-09-14T01:03:41;18.00;99.90
3940;DHT22;1984;48.312;9.244;2022-09-14T01:06:17;18.00;99.90
3940;DHT22;1984;48.312;9.244;2022-09-14T01:09:01;18.00;99.90
3940;DHT22;1984;48.312;9.244;2022-09-14T01:15:19;18.00;99.90
3940;DHT22;1984;48.312;9.244;2022-09-14T01:18:05;18.10;99.90
3940;DHT22;1984;48.312;9.244;2022-09-14T01:20:44;18.10;99.90
3940;DHT22;1984;48.312;9.244;2022-09-14T01:28:50;18.10;99.90
3940;DHT22;1984;48.312;9.244;2022-09-14T01:31:44;18.10;99.90
3940;DHT22;1984;48.312;9.244;2022-09-14T01:34:17;18.10;99.90
3940;DHT22;1984;48.312;9.244;2022-09-14T01:36:48;18.00;99.90
3940;DHT22;1984;48.312;9.244;2022-09-14T01:39:17;18.00;99.90
3940;DHT22;1984;48.312;9.244;2022-09-14T01:41:45;18.00;99.90
3940;DHT22;1984;48.312;9.244;2022-09-14T01:44:36;18.00;99.90
3940;DHT22;1984;48.312;9.244;2022-09-14T01:47:15;18.00;99.90
3940;DHT22;1984;48.312;9.244;2022-09-14T01:49:50;18.10;99.90
3940;DHT22;1984;48.312;9.244;2022-09-14T01:52:27;18.10;99.90
3940;DHT22;1984;48.312;9.244;2022-09-14T01:55:02;18.10;99.90
3940;DHT22;1984;48.312;9.244;2022-09-14T01:57:38;18.20;99.90
3940;DHT22;1984;48.312;9.244;2022-09-14T02:00:11;18.20;99.90
3940;DHT22;1984;48.312;9.244;2022-09-14T02:02:45;18.20;99.90
3940;DHT22;1984;48.312;9.244;2022-09-14T02:07:59;18.20;99.90
3940;DHT22;1984;48.312;9.244;2022-09-14T02:10:25;18.20;99.90
3940;DHT22;1984;48.312;9.244;2022-09-14T02:12:53;18.20;99.90
3940;DHT22;1984;48.312;9.244;2022-09-14T02:15:20;18.30;99.90
3940;DHT22;1984;48.312;9.244;2022-09-14T02:17:46;18.30;99.90
3940;DHT22;1984;48.312;9.244;2022-09-14T02:20:58;18.30;99.90
3940;DHT22;1984;48.312;9.244;2022-09-14T02:23:05;18.30;99.90
3940;DHT22;1984;48.312;9.244;2022-09-14T02:25:31;18.40;99.90
3940;DHT22;1984;48.312;9.244;2022-09-14T02:27:57;18.30;99.90
3940;DHT22;1984;48.312;9.244;2022-09-14T02:30:23;18.30;99.90
3940;DHT22;1984;48.312;9.244;2022-09-14T02:33:07;18.40;99.90
3940;DHT22;1984;48.312;9.244;2022-09-14T02:35:48;18.30;99.90
3940;DHT22;1984;48.312;9.244;2022-09-14T02:38:33;18.30;99.90
3940;DHT22;1984;48.312;9.244;2022-09-14T02:43:49;18.30;99.90
3940;DHT22;1984;48.312;9.244;2022-09-14T02:46:46;18.30;99.90
3940;DHT22;1984;48.312;9.244;2022-09-14T02:52:28;18.40;99.90
3940;DHT22;1984;48.312;9.244;2022-09-14T02:55:09;18.40;99.90
3940;DHT22;1984;48.312;9.244;2022-09-14T02:58:05;18.40;99.90
3940;DHT22;1984;48.312;9.244;2022-09-14T03:00:35;18.40;99.90
3940;DHT22;1984;48.312;9.244;2022-09-14T03:03:02;18.40;99.90
3940;DHT22;1984;48.312;9.244;2022-09-14T03:05:28;18.40;99.90
3940;DHT22;1984;48.312;9.244;2022-09-14T03:07:54;18.30;99.90
3940;DHT22;1984;48.312;9.244;2022-09-14T03:10:19;18.40;99.90
3940;DHT22;1984;48.312;9.244;2022-09-14T03:12:45;18.30;99.90
3940;DHT22;1984;48.312;9.244;2022-09-14T03:15:10;18.40;99.90
3940;DHT22;1984;48.312;9.244;2022-09-14T03:17:36;18.30;99.90
3940;DHT22;1984;48.312;9.244;2022-09-14T03:20:02;18.40;99.90
3940;DHT22;1984;48.312;9.244;2022-09-14T03:22:28;18.30;99.90
3940;DHT22;1984;48.312;9.244;2022-09-14T03:24:53;18.20;99.90
3940;DHT22;1984;48.312;9.244;2022-09-14T03:27:19;18.20;99.90
3940;DHT22;1984;48.312;9.244;2022-09-14T03:29:44;18.20;99.90
3940;DHT22;1984;48.312;9.244;2022-09-14T03:32:10;18.20;99.90
3940;DHT22;1984;48.312;9.244;2022-09-14T03:34:36;18.10;99.90
3940;DHT22;1984;48.312;9.244;2022-09-14T03:37:02;18.10;99.90
3940;DHT22;1984;48.312;9.244;2022-09-14T03:39:27;18.20;99.90
3940;DHT22;1984;48.312;9.244;2022-09-14T03:41:53;18.20;99.90
3940;DHT22;1984;48.312;9.244;2022-09-14T03:44:19;18.20;99.90
3940;DHT22;1984;48.312;9.244;2022-09-14T03:46:44;18.20;99.90
3940;DHT22;1984;48.312;9.244;2022-09-14T03:49:10;18.20;99.90
3940;DHT22;1984;48.312;9.244;2022-09-14T03:51:36;18.20;99.90
3940;DHT22;1984;48.312;9.244;2022-09-14T03:54:01;18.10;99.90
3940;DHT22;1984;48.312;9.244;2022-09-14T03:56:27;18.10;99.90
3940;DHT22;1984;48.312;9.244;2022-09-14T03:58:52;18.10;99.90
3940;DHT22;1984;48.312;9.244;2022-09-14T04:01:20;18.10;99.90
3940;DHT22;1984;48.312;9.244;2022-09-14T04:03:46;18.00;99.90
3940;DHT22;1984;48.312;9.244;2022-09-14T04:06:14;18.00;99.90
3940;DHT22;1984;48.312;9.244;2022-09-14T04:08:41;18.00;99.90
3940;DHT22;1984;48.312;9.244;2022-09-14T04:11:13;18.10;99.90
3940;DHT22;1984;48.312;9.244;2022-09-14T04:13:40;18.00;99.90
3940;DHT22;1984;48.312;9.244;2022-09-14T04:16:06;18.00;99.90
3940;DHT22;1984;48.312;9.244;2022-09-14T04:18:31;17.90;99.90
3940;DHT22;1984;48.312;9.244;2022-09-14T04:21:02;18.00;99.90
3940;DHT22;1984;48.312;9.244;2022-09-14T04:23:29;17.90;99.90
3940;DHT22;1984;48.312;9.244;2022-09-14T04:25:55;17.90;99.90
3940;DHT22;1984;48.312;9.244;2022-09-14T04:28:21;18.00;99.90
3940;DHT22;1984;48.312;9.244;2022-09-14T04:31:13;17.90;99.90
3940;DHT22;1984;48.312;9.244;2022-09-14T04:33:41;17.90;99.90
3940;DHT22;1984;48.312;9.244;2022-09-14T04:36:12;18.00;99.90
3940;DHT22;1984;48.312;9.244;2022-09-14T04:38:39;18.00;99.90
3940;DHT22;1984;48.312;9.244;2022-09-14T04:41:08;18.00;99.90
3940;DHT22;1984;48.312;9.244;2022-09-14T04:43:35;17.90;99.90
3940;DHT22;1984;48.312;9.244;2022-09-14T04:46:16;17.90;99.90
3940;DHT22;1984;48.312;9.244;2022-09-14T04:48:42;17.90;99.90
3940;DHT22;1984;48.312;9.244;2022-09-14T04:51:10;18.00;99.90
3940;DHT22;1984;48.312;9.244;2022-09-14T04:53:38;18.00;99.90
3940;DHT22;1984;48.312;9.244;2022-09-14T04:56:06;17.90;99.90
3940;DHT22;1984;48.312;9.244;2022-09-14T04:58:32;17.90;99.90
3940;DHT22;1984;48.312;9.244;2022-09-14T05:01:06;18.00;99.90
3940;DHT22;1984;48.312;9.244;2022-09-14T05:03:33;17.90;99.90
3940;DHT22;1984;48.312;9.244;2022-09-14T05:06:03;17.90;99.90
3940;DHT22;1984;48.312;9.244;2022-09-14T05:08:29;17.90;99.90
3940;DHT22;1984;48.312;9.244;2022-09-14T05:10:55;17.90;99.90
3940;DHT22;1984;48.312;9.244;2022-09-14T05:13:21;17.90;99.90
3940;DHT22;1984;48.312;9.244;2022-09-14T05:15:47;17.90;99.90
3940;DHT22;1984;48.312;9.244;2022-09-14T05:18:13;17.90;99.90
3940;DHT22;1984;48.312;9.244;2022-09-14T05:20:38;17.90;99.90
3940;DHT22;1984;48.312;9.244;2022-09-14T05:23:04;17.90;99.90
3940;DHT22;1984;48.312;9.244;2022-09-14T05:25:29;17.90;99.90
3940;DHT22;1984;48.312;9.244;2022-09-14T05:27:55;17.90;99.90
3940;DHT22;1984;48.312;9.244;2022-09-14T05:30:20;17.90;99.90
3940;DHT22;1984;48.312;9.244;2022-09-14T05:32:46;18.00;99.90
3940;DHT22;1984;48.312;9.244;2022-09-14T05:35:11;18.00;99.90
3940;DHT22;1984;48.312;9.244;2022-09-14T05:37:37;18.00;99.90
3940;DHT22;1984;48.312;9.244;2022-09-14T05:40:03;18.10;99.90
3940;DHT22;1984;48.312;9.244;2022-09-14T05:42:30;18.10;99.90
3940;DHT22;1984;48.312;9.244;2022-09-14T05:44:55;18.10;99.90
3940;DHT22;1984;48.312;9.244;2022-09-14T05:47:21;18.20;99.90
3940;DHT22;1984;48.312;9.244;2022-09-14T05:49:46;18.20;99.90
3940;DHT22;1984;48.312;9.244;2022-09-14T05:52:12;18.20;99.90
3940;DHT22;1984;48.312;9.244;2022-09-14T05:54:37;18.30;99.90
3940;DHT22;1984;48.312;9.244;2022-09-14T05:57:03;18.30;99.90
3940;DHT22;1984;48.312;9.244;2022-09-14T05:59:28;18.40;99.90
3940;DHT22;1984;48.312;9.244;2022-09-14T06:01:56;18.40;99.90
3940;DHT22;1984;48.312;9.244;2022-09-14T06:04:22;18.50;99.90
3940;DHT22;1984;48.312;9.244;2022-09-14T06:06:48;18.60;99.90
3940;DHT22;1984;48.312;9.244;2022-09-14T06:09:13;18.70;99.90
3940;DHT22;1984;48.312;9.244;2022-09-14T06:11:40;18.70;99.90
3940;DHT22;1984;48.312;9.244;2022-09-14T06:14:06;18.80;99.90
3940;DHT22;1984;48.312;9.244;2022-09-14T06:16:32;18.80;99.90
3940;DHT22;1984;48.312;9.244;2022-09-14T06:18:58;18.90;99.90
3940;DHT22;1984;48.312;9.244;2022-09-14T06:21:31;18.90;99.90
3940;DHT22;1984;48.312;9.244;2022-09-14T06:23:57;19.00;99.90
3940;DHT22;1984;48.312;9.244;2022-09-14T06:26:23;19.00;99.90
3940;DHT22;1984;48.312;9.244;2022-09-14T06:28:49;19.10;99.90
3940;DHT22;1984;48.312;9.244;2022-09-14T06:31:15;19.20;99.90
3940;DHT22;1984;48.312;9.244;2022-09-14T06:33:46;19.20;99.90
3940;DHT22;1984;48.312;9.244;2022-09-14T06:36:17;19.30;99.90
3940;DHT22;1984;48.312;9.244;2022-09-14T06:38:44;19.40;99.90
3940;DHT22;1984;48.312;9.244;2022-09-14T06:41:12;19.50;99.90
3940;DHT22;1984;48.312;9.244;2022-09-14T06:43:39;19.50;99.90
3940;DHT22;1984;48.312;9.244;2022-09-14T06:48:39;19.90;99.90
3940;DHT22;1984;48.312;9.244;2022-09-14T06:51:25;19.90;99.90
3940;DHT22;1984;48.312;9.244;2022-09-14T06:53:51;20.00;99.90
3940;DHT22;1984;48.312;9.244;2022-09-14T06:56:18;20.10;99.90
3940;DHT22;1984;48.312;9.244;2022-09-14T06:58:44;20.30;99.90
3940;DHT22;1984;48.312;9.244;2022-09-14T07:01:14;20.40;99.90
3940;DHT22;1984;48.312;9.244;2022-09-14T07:03:41;20.40;99.90
3940;DHT22;1984;48.312;9.244;2022-09-14T07:06:10;20.70;99.90
3940;DHT22;1984;48.312;9.244;2022-09-14T07:08:37;20.70;99.90
3940;DHT22;1984;48.312;9.244;2022-09-14T07:11:03;20.80;99.90
3940;DHT22;1984;48.312;9.244;2022-09-14T07:13:30;21.00;99.90
3940;DHT22;1984;48.312;9.244;2022-09-14T07:15:55;20.90;99.90
3940;DHT22;1984;48.312;9.244;2022-09-14T07:18:24;21.00;99.90
3940;DHT22;1984;48.312;9.244;2022-09-14T07:20:53;21.10;99.90
3940;DHT22;1984;48.312;9.244;2022-09-14T07:23:20;21.20;99.90
3940;DHT22;1984;48.312;9.244;2022-09-14T07:25:45;21.30;99.90
3940;DHT22;1984;48.312;9.244;2022-09-14T07:28:11;21.40;99.90
3940;DHT22;1984;48.312;9.244;2022-09-14T07:30:37;21.50;99.90
3940;DHT22;1984;48.312;9.244;2022-09-14T07:33:06;21.90;99.90
3940;DHT22;1984;48.312;9.244;2022-09-14T07:35:32;22.80;99.90
3940;DHT22;1984;48.312;9.244;2022-09-14T07:37:57;23.50;99.90
3940;DHT22;1984;48.312;9.244;2022-09-14T07:40:23;24.30;99.90
3940;DHT22;1984;48.312;9.244;2022-09-14T07:42:52;25.00;99.90
3940;DHT22;1984;48.312;9.244;2022-09-14T07:45:20;25.50;99.90
3940;DHT22;1984;48.312;9.244;2022-09-14T07:47:45;25.60;99.90
3940;DHT22;1984;48.312;9.244;2022-09-14T07:50:11;25.80;99.90
3940;DHT22;1984;48.312;9.244;2022-09-14T07:52:37;26.00;99.90
3940;DHT22;1984;48.312;9.244;2022-09-14T07:55:04;26.00;99.90
3940;DHT22;1984;48.312;9.244;2022-09-14T07:57:30;25.80;99.90
3940;DHT22;1984;48.312;9.244;2022-09-14T07:59:56;25.70;99.90
3940;DHT22;1984;48.312;9.244;2022-09-14T08:02:23;25.60;99.90
3940;DHT22;1984;48.312;9.244;2022-09-14T08:04:48;26.00;99.90
3940;DHT22;1984;48.312;9.244;2022-09-14T08:07:15;26.40;99.90
3940;DHT22;1984;48.312;9.244;2022-09-14T08:09:41;26.50;99.90
3940;DHT22;1984;48.312;9.244;2022-09-14T08:12:06;26.70;99.90
3940;DHT22;1984;48.312;9.244;2022-09-14T08:14:32;26.80;99.90
3940;DHT22;1984;48.312;9.244;2022-09-14T08:16:57;27.10;99.90
3940;DHT22;1984;48.312;9.244;2022-09-14T08:19:25;27.00;99.90
3940;DHT22;1984;48.312;9.244;2022-09-14T08:21:51;27.20;99.90
3940;DHT22;1984;48.312;9.244;2022-09-14T08:24:18;27.60;99.90
3940;DHT22;1984;48.312;9.244;2022-09-14T08:26:45;27.90;99.90
3940;DHT22;1984;48.312;9.244;2022-09-14T08:29:12;27.90;99.90
3940;DHT22;1984;48.312;9.244;2022-09-14T08:31:38;27.70;99.90
3940;DHT22;1984;48.312;9.244;2022-09-14T08:34:05;27.50;99.90
3940;DHT22;1984;48.312;9.244;2022-09-14T08:36:38;27.60;99.90
3940;DHT22;1984;48.312;9.244;2022-09-14T08:39:09;28.20;99.90
3940;DHT22;1984;48.312;9.244;2022-09-14T08:44:13;28.50;99.90
3940;DHT22;1984;48.312;9.244;2022-09-14T08:47:02;27.90;99.90
3940;DHT22;1984;48.312;9.244;2022-09-14T08:49:47;27.10;99.90
3940;DHT22;1984;48.312;9.244;2022-09-14T08:52:21;26.20;99.90
3940;DHT22;1984;48.312;9.244;2022-09-14T08:54:52;25.40;99.90
3940;DHT22;1984;48.312;9.244;2022-09-14T08:57:30;24.80;99.90
3940;DHT22;1984;48.312;9.244;2022-09-14T09:00:21;24.80;99.90
3940;DHT22;1984;48.312;9.244;2022-09-14T09:05:53;25.30;99.90
3940;DHT22;1984;48.312;9.244;2022-09-14T09:11:20;26.80;99.90
3940;DHT22;1984;48.312;9.244;2022-09-14T09:13:49;28.40;99.90
3940;DHT22;1984;48.312;9.244;2022-09-14T09:16:18;29.80;99.90
3940;DHT22;1984;48.312;9.244;2022-09-14T09:18:47;31.10;99.90
3940;DHT22;1984;48.312;9.244;2022-09-14T09:21:15;31.20;99.90
3940;DHT22;1984;48.312;9.244;2022-09-14T09:23:41;31.40;99.90
3940;DHT22;1984;48.312;9.244;2022-09-14T09:26:27;31.30;99.90
3940;DHT22;1984;48.312;9.244;2022-09-14T09:29:00;30.60;99.90
3940;DHT22;1984;48.312;9.244;2022-09-14T09:31:34;29.80;99.90
3940;DHT22;1984;48.312;9.244;2022-09-14T09:34:00;29.30;99.90
3940;DHT22;1984;48.312;9.244;2022-09-14T09:36:31;28.90;99.90
3940;DHT22;1984;48.312;9.244;2022-09-14T09:38:58;29.20;99.90
3940;DHT22;1984;48.312;9.244;2022-09-14T09:41:27;29.40;99.90
3940;DHT22;1984;48.312;9.244;2022-09-14T09:44:02;28.80;99.90
3940;DHT22;1984;48.312;9.244;2022-09-14T09:46:32;27.90;99.90
3940;DHT22;1984;48.312;9.244;2022-09-14T09:49:02;27.80;99.90
3940;DHT22;1984;48.312;9.244;2022-09-14T09:51:30;27.80;99.90
3940;DHT22;1984;48.312;9.244;2022-09-14T09:56:59;27.70;99.90
3940;DHT22;1984;48.312;9.244;2022-09-14T10:01:54;27.60;99.90
3940;DHT22;1984;48.312;9.244;2022-09-14T10:04:24;27.50;99.90
3940;DHT22;1984;48.312;9.244;2022-09-14T10:06:52;27.80;99.90
3940;DHT22;1984;48.312;9.244;2022-09-14T10:09:23;28.00;99.90
3940;DHT22;1984;48.312;9.244;2022-09-14T10:12:02;28.10;99.90
3940;DHT22;1984;48.312;9.244;2022-09-14T10:14:36;27.90;99.90
3940;DHT22;1984;48.312;9.244;2022-09-14T10:17:19;27.90;99.90
3940;DHT22;1984;48.312;9.244;2022-09-14T10:19:50;27.70;99.90
3940;DHT22;1984;48.312;9.244;2022-09-14T10:22:18;27.60;99.90
3940;DHT22;1984;48.312;9.244;2022-09-14T10:29:55;26.70;99.90
3940;DHT22;1984;48.312;9.244;2022-09-14T10:32:23;26.40;99.90
3940;DHT22;1984;48.312;9.244;2022-09-14T10:34:50;26.30;99.90
3940;DHT22;1984;48.312;9.244;2022-09-14T10:37:31;26.00;99.90
3940;DHT22;1984;48.312;9.244;2022-09-14T10:40:19;25.80;99.90
3940;DHT22;1984;48.312;9.244;2022-09-14T10:43:15;25.40;99.90
3940;DHT22;1984;48.312;9.244;2022-09-14T10:45:48;25.30;99.90
3940;DHT22;1984;48.312;9.244;2022-09-14T10:48:34;25.10;99.90
3940;DHT22;1984;48.312;9.244;2022-09-14T10:59:05;24.90;99.90
3940;DHT22;1984;48.312;9.244;2022-09-14T11:02:00;24.70;99.90
3940;DHT22;1984;48.312;9.244;2022-09-14T11:10:11;24.20;99.90
3940;DHT22;1984;48.312;9.244;2022-09-14T11:18:18;23.80;99.90
3940;DHT22;1984;48.312;9.244;2022-09-14T11:26:47;23.20;99.90
3940;DHT22;1984;48.312;9.244;2022-09-14T11:31:54;22.70;99.90
3940;DHT22;1984;48.312;9.244;2022-09-14T11:34:28;22.40;99.90
3940;DHT22;1984;48.312;9.244;2022-09-14T11:37:02;22.10;99.90
3940;DHT22;1984;48.312;9.244;2022-09-14T11:39:32;21.90;99.90
3940;DHT22;1984;48.312;9.244;2022-09-14T11:44:32;21.80;99.90
3940;DHT22;1984;48.312;9.244;2022-09-14T11:47:05;21.90;99.90
3940;DHT22;1984;48.312;9.244;2022-09-14T11:52:18;22.10;99.90
3940;DHT22;1984;48.312;9.244;2022-09-14T11:54:47;22.10;99.90
3940;DHT22;1984;48.312;9.244;2022-09-14T11:57:19;22.30;99.90
3940;DHT22;1984;48.312;9.244;2022-09-14T11:59:52;22.30;99.90
3940;DHT22;1984;48.312;9.244;2022-09-14T12:13:23;22.50;99.90
3940;DHT22;1984;48.312;9.244;2022-09-14T12:25:38;22.10;99.90
3940;DHT22;1984;48.312;9.244;2022-09-14T12:35:57;21.70;99.90
3940;DHT22;1984;48.312;9.244;2022-09-14T13:04:56;21.20;99.90
3940;DHT22;1984;48.312;9.244;2022-09-14T13:07:27;21.30;99.90
3940;DHT22;1984;48.312;9.244;2022-09-14T13:09:55;21.30;99.90
3940;DHT22;1984;48.312;9.244;2022-09-14T13:12:40;21.40;99.90
3940;DHT22;1984;48.312;9.244;2022-09-14T13:15:20;21.50;99.90
3940;DHT22;1984;48.312;9.244;2022-09-14T13:20:33;21.70;99.90
3940;DHT22;1984;48.312;9.244;2022-09-14T13:22:59;21.80;99.90
3940;DHT22;1984;48.312;9.244;2022-09-14T13:28:02;21.70;99.90
3940;DHT22;1984;48.312;9.244;2022-09-14T13:30:29;21.80;99.90
3940;DHT22;1984;48.312;9.244;2022-09-14T13:32:56;21.80;99.90
3940;DHT22;1984;48.312;9.244;2022-09-14T13:35:35;21.80;99.90
3940;DHT22;1984;48.312;9.244;2022-09-14T13:38:07;21.80;99.90
3940;DHT22;1984;48.312;9.244;2022-09-14T13:40:34;21.60;99.90
3940;DHT22;1984;48.312;9.244;2022-09-14T13:43:00;21.50;99.90
3940;DHT22;1984;48.312;9.244;2022-09-14T13:45:26;21.40;99.90
3940;DHT22;1984;48.312;9.244;2022-09-14T13:47:52;21.20;99.90
3940;DHT22;1984;48.312;9.244;2022-09-14T13:50:20;21.00;99.90
3940;DHT22;1984;48.312;9.244;2022-09-14T13:52:48;20.80;99.90
3940;DHT22;1984;48.312;9.244;2022-09-14T14:00:53;20.90;99.90
3940;DHT22;1984;48.312;9.244;2022-09-14T14:05:57;21.00;99.90
3940;DHT22;1984;48.312;9.244;2022-09-14T14:08:36;21.00;99.90
3940;DHT22;1984;48.312;9.244;2022-09-14T14:11:04;20.90;99.90
3940;DHT22;1984;48.312;9.244;2022-09-14T14:13:33;20.90;99.90
3940;DHT22;1984;48.312;9.244;2022-09-14T14:16:19;20.90;99.90
3940;DHT22;1984;48.312;9.244;2022-09-14T14:18:57;20.80;99.90
3940;DHT22;1984;48.312;9.244;2022-09-14T14:24:17;20.70;99.90
3940;DHT22;1984;48.312;9.244;2022-09-14T14:26:52;20.70;99.90
3940;DHT22;1984;48.312;9.244;2022-09-14T14:29:18;20.80;99.90
3940;DHT22;1984;48.312;9.244;2022-09-14T14:31:44;20.90;99.90
3940;DHT22;1984;48.312;9.244;2022-09-14T14:34:18;20.80;99.90
3940;DHT22;1984;48.312;9.244;2022-09-14T14:36:43;20.70;99.90
3940;DHT22;1984;48.312;9.244;2022-09-14T14:39:09;20.50;99.90
3940;DHT22;1984;48.312;9.244;2022-09-14T14:41:35;20.30;99.90
3940;DHT22;1984;48.312;9.244;2022-09-14T14:44:01;20.00;99.90
3940;DHT22;1984;48.312;9.244;2022-09-14T14:46:27;19.70;99.90
3940;DHT22;1984;48.312;9.244;2022-09-14T14:48:54;19.60;99.90
3940;DHT22;1984;48.312;9.244;2022-09-14T14:51:20;19.40;99.90
3940;DHT22;1984;48.312;9.244;2022-09-14T14:53:46;19.20;99.90
3940;DHT22;1984;48.312;9.244;2022-09-14T14:56:12;19.10;99.90
3940;DHT22;1984;48.312;9.244;2022-09-14T14:58:42;19.00;99.90
3940;DHT22;1984;48.312;9.244;2022-09-14T15:01:08;18.90;99.90
3940;DHT22;1984;48.312;9.244;2022-09-14T15:03:34;18.70;99.90
3940;DHT22;1984;48.312;9.244;2022-09-14T15:06:10;18.60;99.90
3940;DHT22;1984;48.312;9.244;2022-09-14T15:08:36;18.50;99.90
3940;DHT22;1984;48.312;9.244;2022-09-14T15:11:01;18.50;99.90
3940;DHT22;1984;48.312;9.244;2022-09-14T15:13:27;18.40;99.90
3940;DHT22;1984;48.312;9.244;2022-09-14T15:15:52;18.50;99.90
3940;DHT22;1984;48.312;9.244;2022-09-14T15:18:18;18.50;99.90
3940;DHT22;1984;48.312;9.244;2022-09-14T15:20:43;18.30;99.90
3940;DHT22;1984;48.312;9.244;2022-09-14T15:23:11;18.40;99.90
3940;DHT22;1984;48.312;9.244;2022-09-14T15:25:38;18.40;99.90
3940;DHT22;1984;48.312;9.244;2022-09-14T15:28:04;18.40;99.90
3940;DHT22;1984;48.312;9.244;2022-09-14T15:30:29;18.50;99.90
3940;DHT22;1984;48.312;9.244;2022-09-14T15:32:55;18.60;99.90
3940;DHT22;1984;48.312;9.244;2022-09-14T15:35:20;18.60;99.90
3940;DHT22;1984;48.312;9.244;2022-09-14T15:37:46;18.80;99.90
3940;DHT22;1984;48.312;9.244;2022-09-14T15:40:12;18.80;99.90
3940;DHT22;1984;48.312;9.244;2022-09-14T15:42:38;18.90;99.90
3940;DHT22;1984;48.312;9.244;2022-09-14T15:45:04;18.90;99.90
3940;DHT22;1984;48.312;9.244;2022-09-14T15:47:29;18.90;99.90
3940;DHT22;1984;48.312;9.244;2022-09-14T15:49:55;18.90;99.90
3940;DHT22;1984;48.312;9.244;2022-09-14T15:52:20;18.90;99.90
3940;DHT22;1984;48.312;9.244;2022-09-14T15:54:46;18.90;99.90
3940;DHT22;1984;48.312;9.244;2022-09-14T15:57:12;18.90;99.90
3940;DHT22;1984;48.312;9.244;2022-09-14T15:59:38;18.90;99.90
3940;DHT22;1984;48.312;9.244;2022-09-14T16:02:04;18.90;99.90
3940;DHT22;1984;48.312;9.244;2022-09-14T16:04:34;18.90;99.90
3940;DHT22;1984;48.312;9.244;2022-09-14T16:07:01;18.90;99.90
3940;DHT22;1984;48.312;9.244;2022-09-14T16:09:29;18.90;99.90
3940;DHT22;1984;48.312;9.244;2022-09-14T16:11:55;18.90;99.90
3940;DHT22;1984;48.312;9.244;2022-09-14T16:14:20;18.90;99.90
3940;DHT22;1984;48.312;9.244;2022-09-14T16:16:46;18.90;99.90
3940;DHT22;1984;48.312;9.244;2022-09-14T16:19:13;18.80;99.90
3940;DHT22;1984;48.312;9.244;2022-09-14T16:21:40;18.80;99.90
3940;DHT22;1984;48.312;9.244;2022-09-14T16:24:09;18.90;99.90
3940;DHT22;1984;48.312;9.244;2022-09-14T16:26:36;18.80;99.90
3940;DHT22;1984;48.312;9.244;2022-09-14T16:29:03;18.80;99.90
3940;DHT22;1984;48.312;9.244;2022-09-14T16:31:34;18.90;99.90
3940;DHT22;1984;48.312;9.244;2022-09-14T16:34:03;18.90;99.90
3940;DHT22;1984;48.312;9.244;2022-09-14T16:36:31;18.70;99.90
3940;DHT22;1984;48.312;9.244;2022-09-14T16:38:59;18.60;99.90
3940;DHT22;1984;48.312;9.244;2022-09-14T16:41:26;18.50;99.90
3940;DHT22;1984;48.312;9.244;2022-09-14T16:43:59;18.40;99.90
3940;DHT22;1984;48.312;9.244;2022-09-14T16:46:26;18.40;99.90
3940;DHT22;1984;48.312;9.244;2022-09-14T16:48:52;18.40;99.90
3940;DHT22;1984;48.312;9.244;2022-09-14T16:51:21;18.30;99.90
3940;DHT22;1984;48.312;9.244;2022-09-14T16:53:47;18.30;99.90
3940;DHT22;1984;48.312;9.244;2022-09-14T16:56:16;18.40;99.90
3940;DHT22;1984;48.312;9.244;2022-09-14T16:58:43;18.30;99.90
3940;DHT22;1984;48.312;9.244;2022-09-14T17:01:30;18.30;99.90
3940;DHT22;1984;48.312;9.244;2022-09-14T17:03:59;18.30;99.90
3940;DHT22;1984;48.312;9.244;2022-09-14T17:06:30;18.30;99.90
3940;DHT22;1984;48.312;9.244;2022-09-14T17:08:58;18.30;99.90
3940;DHT22;1984;48.312;9.244;2022-09-14T17:11:25;18.30;99.90
3940;DHT22;1984;48.312;9.244;2022-09-14T17:13:51;18.30;99.90
3940;DHT22;1984;48.312;9.244;2022-09-14T17:16:19;18.20;99.90
3940;DHT22;1984;48.312;9.244;2022-09-14T17:18:46;18.20;99.90
3940;DHT22;1984;48.312;9.244;2022-09-14T17:21:18;18.20;99.90
3940;DHT22;1984;48.312;9.244;2022-09-14T17:23:44;18.20;99.90
3940;DHT22;1984;48.312;9.244;2022-09-14T17:26:12;18.20;99.90
3940;DHT22;1984;48.312;9.244;2022-09-14T17:28:39;18.20;99.90
3940;DHT22;1984;48.312;9.244;2022-09-14T17:31:07;18.20;99.90
3940;DHT22;1984;48.312;9.244;2022-09-14T17:33:33;18.10;99.90
3940;DHT22;1984;48.312;9.244;2022-09-14T17:36:01;18.10;99.90
3940;DHT22;1984;48.312;9.244;2022-09-14T17:38:30;18.10;99.90
3940;DHT22;1984;48.312;9.244;2022-09-14T17:41:04;18.00;99.90
3940;DHT22;1984;48.312;9.244;2022-09-14T17:43:31;18.00;99.90
3940;DHT22;1984;48.312;9.244;2022-09-14T17:45:57;18.00;99.90
3940;DHT22;1984;48.312;9.244;2022-09-14T17:48:24;18.00;99.90
3940;DHT22;1984;48.312;9.244;2022-09-14T17:50:50;17.90;99.90
3940;DHT22;1984;48.312;9.244;2022-09-14T17:53:16;17.90;99.90
3940;DHT22;1984;48.312;9.244;2022-09-14T17:55:42;17.80;99.90
3940;DHT22;1984;48.312;9.244;2022-09-14T17:58:09;17.80;99.90
3940;DHT22;1984;48.312;9.244;2022-09-14T18:00:34;17.70;99.90
3940;DHT22;1984;48.312;9.244;2022-09-14T18:03:00;17.70;99.90
3940;DHT22;1984;48.312;9.244;2022-09-14T18:05:26;17.70;99.90
3940;DHT22;1984;48.312;9.244;2022-09-14T18:07:53;17.60;99.90
3940;DHT22;1984;48.312;9.244;2022-09-14T18:10:18;17.50;99.90
3940;DHT22;1984;48.312;9.244;2022-09-14T18:12:44;17.50;99.90
3940;DHT22;1984;48.312;9.244;2022-09-14T18:15:11;17.50;99.90
3940;DHT22;1984;48.312;9.244;2022-09-14T18:17:39;17.50;99.90
3940;DHT22;1984;48.312;9.244;2022-09-14T18:20:06;17.50;99.90
3940;DHT22;1984;48.312;9.244;2022-09-14T18:22:32;17.50;99.90
3940;DHT22;1984;48.312;9.244;2022-09-14T18:24:58;17.50;99.90
3940;DHT22;1984;48.312;9.244;2022-09-14T18:27:23;17.40;99.90
3940;DHT22;1984;48.312;9.244;2022-09-14T18:29:49;17.40;99.90
3940;DHT22;1984;48.312;9.244;2022-09-14T18:32:15;17.30;99.90
3940;DHT22;1984;48.312;9.244;2022-09-14T18:34:40;17.30;99.90
3940;DHT22;1984;48.312;9.244;2022-09-14T18:37:06;17.20;99.90
3940;DHT22;1984;48.312;9.244;2022-09-14T18:39:32;17.20;99.90